sensor_id;sensor_type;location;lat;lon;timestamp;temperature;humidity
72206;DHT22;60111;48.286;7.812;2023-11-21T00:00:07;9.90;80.40
72206;DHT22;60111;48.286;7.812;2023-11-21T00:02:41;9.80;80.60
72206;DHT22;60111;48.286;7.812;2023-11-21T00:05:13;9.80;81.00
72206;DHT22;60111;48.286;7.812;2023-11-21T00:07:45;9.80;81.30
72206;DHT22;60111;48.286;7.812;2023-11-21T00:10:17;9.80;81.20
72206;DHT22;60111;48.286;7.812;2023-11-21T00:12:49;9.80;81.30
72206;DHT22;60111;48.286;7.812;2023-11-21T00:15:21;9.80;81.70
72206;DHT22;60111;48.286;7.812;2023-11-21T00:17:53;9.80;82.00
72206;DHT22;60111;48.286;7.812;2023-11-21T00:20:24;9.70;82.20
72206;DHT22;60111;48.286;7.812;2023-11-21T00:22:56;9.70;82.40
72206;DHT22;60111;48.286;7.812;2023-11-21T00:25:28;9.70;82.40
72206;DHT22;60111;48.286;7.812;2023-11-21T00:28:01;9.70;82.70
72206;DHT22;60111;48.286;7.812;2023-11-21T00:30:35;9.70;82.80
72206;DHT22;60111;48.286;7.812;2023-11-21T00:33:07;9.70;83.00
72206;DHT22;60111;48.286;7.812;2023-11-21T00:35:39;9.70;83.00
72206;DHT22;60111;48.286;7.812;2023-11-21T00:38:11;9.70;82.80
72206;DHT22;60111;48.286;7.812;2023-11-21T00:40:43;9.70;83.00
72206;DHT22;60111;48.286;7.812;2023-11-21T00:43:15;9.70;83.00
72206;DHT22;60111;48.286;7.812;2023-11-21T00:45:46;9.70;83.10
72206;DHT22;60111;48.286;7.812;2023-11-21T00:48:20;9.70;83.20
72206;DHT22;60111;48.286;7.812;2023-11-21T00:50:51;9.70;82.90
72206;DHT22;60111;48.286;7.812;2023-11-21T00:53:23;9.70;82.90
72206;DHT22;60111;48.286;7.812;2023-11-21T00:55:55;9.70;83.30
72206;DHT22;60111;48.286;7.812;2023-11-21T00:58:28;9.60;83.40
72206;DHT22;60111;48.286;7.812;2023-11-21T01:01:01;9.60;83.50
72206;DHT22;60111;48.286;7.812;2023-11-21T01:03:34;9.60;83.50
72206;DHT22;60111;48.286;7.812;2023-11-21T01:06:06;9.60;83.50
72206;DHT22;60111;48.286;7.812;2023-11-21T01:08:38;9.60;83.40
72206;DHT22;60111;48.286;7.812;2023-11-21T01:11:10;9.50;83.60
72206;DHT22;60111;48.286;7.812;2023-11-21T01:13:44;9.50;83.70
72206;DHT22;60111;48.286;7.812;2023-11-21T01:16:16;9.60;83.70
72206;DHT22;60111;48.286;7.812;2023-11-21T01:18:48;9.60;83.00
72206;DHT22;60111;48.286;7.812;2023-11-21T01:21:20;9.60;83.30
72206;DHT22;60111;48.286;7.812;2023-11-21T01:23:52;9.60;83.00
72206;DHT22;60111;48.286;7.812;2023-11-21T01:26:25;9.60;83.00
72206;DHT22;60111;48.286;7.812;2023-11-21T01:28:58;9.60;83.20
72206;DHT22;60111;48.286;7.812;2023-11-21T01:31:30;9.60;83.30
72206;DHT22;60111;48.286;7.812;2023-11-21T01:34:02;9.60;83.20
72206;DHT22;60111;48.286;7.812;2023-11-21T01:36:34;9.50;83.60
72206;DHT22;60111;48.286;7.812;2023-11-21T01:39:06;9.60;83.70
72206;DHT22;60111;48.286;7.812;2023-11-21T01:41:39;9.60;84.00
72206;DHT22;60111;48.286;7.812;2023-11-21T01:44:11;9.50;84.00
72206;DHT22;60111;48.286;7.812;2023-11-21T01:46:44;9.60;83.80
72206;DHT22;60111;48.286;7.812;2023-11-21T01:49:16;9.50;84.10
72206;DHT22;60111;48.286;7.812;2023-11-21T01:51:58;9.40;84.20
72206;DHT22;60111;48.286;7.812;2023-11-21T01:54:28;9.40;84.40
72206;DHT22;60111;48.286;7.812;2023-11-21T01:57:03;9.30;84.40
72206;DHT22;60111;48.286;7.812;2023-11-21T01:59:37;9.20;85.20
72206;DHT22;60111;48.286;7.812;2023-11-21T02:02:09;9.20;84.80
72206;DHT22;60111;48.286;7.812;2023-11-21T02:04:41;9.20;84.80
72206;DHT22;60111;48.286;7.812;2023-11-21T02:07:13;9.20;84.90
72206;DHT22;60111;48.286;7.812;2023-11-21T02:09:45;9.20;84.90
72206;DHT22;60111;48.286;7.812;2023-11-21T02:12:17;9.20;84.70
72206;DHT22;60111;48.286;7.812;2023-11-21T02:14:48;9.20;84.40
72206;DHT22;60111;48.286;7.812;2023-11-21T02:17:21;9.30;84.50
72206;DHT22;60111;48.286;7.812;2023-11-21T02:19:53;9.20;84.40
72206;DHT22;60111;48.286;7.812;2023-11-21T02:22:25;9.30;84.10
72206;DHT22;60111;48.286;7.812;2023-11-21T02:24:58;9.20;84.40
72206;DHT22;60111;48.286;7.812;2023-11-21T02:27:30;9.20;84.20
72206;DHT22;60111;48.286;7.812;2023-11-21T02:30:02;9.20;84.20
72206;DHT22;60111;48.286;7.812;2023-11-21T02:32:35;9.20;84.30
72206;DHT22;60111;48.286;7.812;2023-11-21T02:35:07;9.20;84.30
72206;DHT22;60111;48.286;7.812;2023-11-21T02:37:39;9.20;84.40
72206;DHT22;60111;48.286;7.812;2023-11-21T02:40:11;9.20;84.40
72206;DHT22;60111;48.286;7.812;2023-11-21T02:42:44;9.20;84.00
72206;DHT22;60111;48.286;7.812;2023-11-21T02:45:16;9.30;83.80
72206;DHT22;60111;48.286;7.812;2023-11-21T02:47:48;9.30;83.70
72206;DHT22;60111;48.286;7.812;2023-11-21T02:50:24;9.20;83.90
72206;DHT22;60111;48.286;7.812;2023-11-21T02:52:56;9.20;83.90
72206;DHT22;60111;48.286;7.812;2023-11-21T02:55:30;9.20;83.80
72206;DHT22;60111;48.286;7.812;2023-11-21T02:58:03;9.30;83.70
72206;DHT22;60111;48.286;7.812;2023-11-21T03:00:35;9.20;83.80
72206;DHT22;60111;48.286;7.812;2023-11-21T03:03:07;9.20;83.90
72206;DHT22;60111;48.286;7.812;2023-11-21T03:05:39;9.20;83.80
72206;DHT22;60111;48.286;7.812;2023-11-21T03:08:10;9.20;83.80
72206;DHT22;60111;48.286;7.812;2023-11-21T03:10:42;9.20;83.50
72206;DHT22;60111;48.286;7.812;2023-11-21T03:13:14;9.20;83.30
72206;DHT22;60111;48.286;7.812;2023-11-21T03:15:46;9.20;83.10
72206;DHT22;60111;48.286;7.812;2023-11-21T03:18:18;9.20;83.40
72206;DHT22;60111;48.286;7.812;2023-11-21T03:20:52;9.20;83.60
72206;DHT22;60111;48.286;7.812;2023-11-21T03:23:24;9.10;83.50
72206;DHT22;60111;48.286;7.812;2023-11-21T03:25:56;9.20;83.10
72206;DHT22;60111;48.286;7.812;2023-11-21T03:28:28;9.20;83.30
72206;DHT22;60111;48.286;7.812;2023-11-21T03:31:01;9.20;83.20
72206;DHT22;60111;48.286;7.812;2023-11-21T03:33:32;9.20;83.10
72206;DHT22;60111;48.286;7.812;2023-11-21T03:36:06;9.20;82.90
72206;DHT22;60111;48.286;7.812;2023-11-21T03:38:39;9.20;83.00
72206;DHT22;60111;48.286;7.812;2023-11-21T03:41:10;9.20;83.00
72206;DHT22;60111;48.286;7.812;2023-11-21T03:43:42;9.20;82.90
72206;DHT22;60111;48.286;7.812;2023-11-21T03:46:14;9.20;82.80
72206;DHT22;60111;48.286;7.812;2023-11-21T03:48:46;9.10;83.20
72206;DHT22;60111;48.286;7.812;2023-11-21T03:51:18;9.10;83.40
72206;DHT22;60111;48.286;7.812;2023-11-21T03:53:50;9.00;83.70
72206;DHT22;60111;48.286;7.812;2023-11-21T03:56:21;9.00;84.40
72206;DHT22;60111;48.286;7.812;2023-11-21T03:58:53;9.10;83.90
72206;DHT22;60111;48.286;7.812;2023-11-21T04:01:25;9.00;84.00
72206;DHT22;60111;48.286;7.812;2023-11-21T04:03:57;9.00;84.10
72206;DHT22;60111;48.286;7.812;2023-11-21T04:06:29;9.00;84.00
72206;DHT22;60111;48.286;7.812;2023-11-21T04:09:03;9.10;84.10
72206;DHT22;60111;48.286;7.812;2023-11-21T04:11:35;9.00;84.10
72206;DHT22;60111;48.286;7.812;2023-11-21T04:14:07;9.00;84.10
72206;DHT22;60111;48.286;7.812;2023-11-21T04:16:40;9.00;84.20
72206;DHT22;60111;48.286;7.812;2023-11-21T04:19:12;9.00;84.10
72206;DHT22;60111;48.286;7.812;2023-11-21T04:21:48;9.00;84.30
72206;DHT22;60111;48.286;7.812;2023-11-21T04:24:19;9.00;84.70
72206;DHT22;60111;48.286;7.812;2023-11-21T04:26:51;8.90;84.80
72206;DHT22;60111;48.286;7.812;2023-11-21T04:29:24;8.90;84.90
72206;DHT22;60111;48.286;7.812;2023-11-21T04:31:56;8.90;84.80
72206;DHT22;60111;48.286;7.812;2023-11-21T04:34:28;9.00;84.90
72206;DHT22;60111;48.286;7.812;2023-11-21T04:37:03;9.00;85.00
72206;DHT22;60111;48.286;7.812;2023-11-21T04:39:37;8.90;85.00
72206;DHT22;60111;48.286;7.812;2023-11-21T04:42:09;9.00;85.00
72206;DHT22;60111;48.286;7.812;2023-11-21T04:44:41;8.90;85.30
72206;DHT22;60111;48.286;7.812;2023-11-21T04:47:12;8.90;85.40
72206;DHT22;60111;48.286;7.812;2023-11-21T04:49:45;8.90;85.40
72206;DHT22;60111;48.286;7.812;2023-11-21T04:52:19;8.90;85.50
72206;DHT22;60111;48.286;7.812;2023-11-21T04:54:51;8.80;85.70
72206;DHT22;60111;48.286;7.812;2023-11-21T04:57:24;8.90;85.50
72206;DHT22;60111;48.286;7.812;2023-11-21T04:59:56;8.90;85.60
72206;DHT22;60111;48.286;7.812;2023-11-21T05:02:29;8.90;85.50
72206;DHT22;60111;48.286;7.812;2023-11-21T05:05:01;8.90;85.50
72206;DHT22;60111;48.286;7.812;2023-11-21T05:07:33;8.90;85.30
72206;DHT22;60111;48.286;7.812;2023-11-21T05:10:06;8.90;85.40
72206;DHT22;60111;48.286;7.812;2023-11-21T05:12:41;8.80;85.60
72206;DHT22;60111;48.286;7.812;2023-11-21T05:15:14;8.80;86.00
72206;DHT22;60111;48.286;7.812;2023-11-21T05:17:46;8.80;85.60
72206;DHT22;60111;48.286;7.812;2023-11-21T05:20:20;8.80;85.70
72206;DHT22;60111;48.286;7.812;2023-11-21T05:22:52;8.70;85.90
72206;DHT22;60111;48.286;7.812;2023-11-21T05:25:24;8.80;85.90
72206;DHT22;60111;48.286;7.812;2023-11-21T05:27:56;8.70;86.10
72206;DHT22;60111;48.286;7.812;2023-11-21T05:30:30;8.70;86.20
72206;DHT22;60111;48.286;7.812;2023-11-21T05:33:01;8.70;86.50
72206;DHT22;60111;48.286;7.812;2023-11-21T05:35:34;8.70;86.40
72206;DHT22;60111;48.286;7.812;2023-11-21T05:38:06;8.70;86.10
72206;DHT22;60111;48.286;7.812;2023-11-21T05:40:38;8.70;86.30
72206;DHT22;60111;48.286;7.812;2023-11-21T05:43:10;8.70;86.60
72206;DHT22;60111;48.286;7.812;2023-11-21T05:45:42;8.70;86.50
72206;DHT22;60111;48.286;7.812;2023-11-21T05:48:14;8.70;86.40
72206;DHT22;60111;48.286;7.812;2023-11-21T05:50:46;8.70;86.50
72206;DHT22;60111;48.286;7.812;2023-11-21T05:53:20;8.70;86.70
72206;DHT22;60111;48.286;7.812;2023-11-21T05:55:52;8.70;86.40
72206;DHT22;60111;48.286;7.812;2023-11-21T05:58:24;8.70;86.60
72206;DHT22;60111;48.286;7.812;2023-11-21T06:00:56;8.70;86.60
72206;DHT22;60111;48.286;7.812;2023-11-21T06:03:29;8.70;86.10
72206;DHT22;60111;48.286;7.812;2023-11-21T06:06:01;8.70;86.30
72206;DHT22;60111;48.286;7.812;2023-11-21T06:08:33;8.70;86.40
72206;DHT22;60111;48.286;7.812;2023-11-21T06:11:04;8.70;86.40
72206;DHT22;60111;48.286;7.812;2023-11-21T06:13:36;8.70;86.40
72206;DHT22;60111;48.286;7.812;2023-11-21T06:16:08;8.60;86.50
72206;DHT22;60111;48.286;7.812;2023-11-21T06:18:40;8.60;86.70
72206;DHT22;60111;48.286;7.812;2023-11-21T06:21:12;8.60;86.80
72206;DHT22;60111;48.286;7.812;2023-11-21T06:23:44;8.60;86.80
72206;DHT22;60111;48.286;7.812;2023-11-21T06:26:16;8.60;86.50
72206;DHT22;60111;48.286;7.812;2023-11-21T06:28:49;8.60;86.40
72206;DHT22;60111;48.286;7.812;2023-11-21T06:31:22;8.60;86.30
72206;DHT22;60111;48.286;7.812;2023-11-21T06:33:54;8.50;86.30
72206;DHT22;60111;48.286;7.812;2023-11-21T06:36:25;8.60;86.20
72206;DHT22;60111;48.286;7.812;2023-11-21T06:38:57;8.50;86.30
72206;DHT22;60111;48.286;7.812;2023-11-21T06:41:29;8.50;86.50
72206;DHT22;60111;48.286;7.812;2023-11-21T06:44:01;8.60;86.00
72206;DHT22;60111;48.286;7.812;2023-11-21T06:46:33;8.50;86.30
72206;DHT22;60111;48.286;7.812;2023-11-21T06:49:05;8.50;86.60
72206;DHT22;60111;48.286;7.812;2023-11-21T06:51:37;8.50;86.70
72206;DHT22;60111;48.286;7.812;2023-11-21T06:54:09;8.50;86.70
72206;DHT22;60111;48.286;7.812;2023-11-21T06:56:41;8.50;86.90
72206;DHT22;60111;48.286;7.812;2023-11-21T06:59:12;8.50;86.70
72206;DHT22;60111;48.286;7.812;2023-11-21T07:01:45;8.40;86.80
72206;DHT22;60111;48.286;7.812;2023-11-21T07:04:16;8.40;86.90
72206;DHT22;60111;48.286;7.812;2023-11-21T07:06:49;8.50;86.90
72206;DHT22;60111;48.286;7.812;2023-11-21T07:09:21;8.50;86.90
72206;DHT22;60111;48.286;7.812;2023-11-21T07:11:53;8.50;87.00
72206;DHT22;60111;48.286;7.812;2023-11-21T07:14:25;8.50;87.20
72206;DHT22;60111;48.286;7.812;2023-11-21T07:16:57;8.50;87.10
72206;DHT22;60111;48.286;7.812;2023-11-21T07:19:29;8.60;86.90
72206;DHT22;60111;48.286;7.812;2023-11-21T07:22:01;8.60;86.90
72206;DHT22;60111;48.286;7.812;2023-11-21T07:24:33;8.70;86.10
72206;DHT22;60111;48.286;7.812;2023-11-21T07:27:05;8.70;86.40
72206;DHT22;60111;48.286;7.812;2023-11-21T07:29:37;8.70;86.40
72206;DHT22;60111;48.286;7.812;2023-11-21T07:32:10;8.70;86.10
72206;DHT22;60111;48.286;7.812;2023-11-21T07:34:43;8.70;86.40
72206;DHT22;60111;48.286;7.812;2023-11-21T07:37:15;8.70;86.30
72206;DHT22;60111;48.286;7.812;2023-11-21T07:39:48;8.70;86.10
72206;DHT22;60111;48.286;7.812;2023-11-21T07:42:20;8.70;85.90
72206;DHT22;60111;48.286;7.812;2023-11-21T07:44:52;8.70;86.10
72206;DHT22;60111;48.286;7.812;2023-11-21T07:47:24;8.70;86.50
72206;DHT22;60111;48.286;7.812;2023-11-21T07:49:57;8.60;86.80
72206;DHT22;60111;48.286;7.812;2023-11-21T07:52:29;8.60;87.10
72206;DHT22;60111;48.286;7.812;2023-11-21T07:55:01;8.70;86.70
72206;DHT22;60111;48.286;7.812;2023-11-21T07:57:33;8.60;86.80
72206;DHT22;60111;48.286;7.812;2023-11-21T08:00:05;8.60;87.30
72206;DHT22;60111;48.286;7.812;2023-11-21T08:02:40;8.60;87.50
72206;DHT22;60111;48.286;7.812;2023-11-21T08:05:13;8.60;87.80
72206;DHT22;60111;48.286;7.812;2023-11-21T08:07:46;8.60;88.00
72206;DHT22;60111;48.286;7.812;2023-11-21T08:10:18;8.60;88.10
72206;DHT22;60111;48.286;7.812;2023-11-21T08:12:49;8.60;88.30
72206;DHT22;60111;48.286;7.812;2023-11-21T08:15:22;8.60;88.20
72206;DHT22;60111;48.286;7.812;2023-11-21T08:17:53;8.60;88.40
72206;DHT22;60111;48.286;7.812;2023-11-21T08:20:25;8.60;88.70
72206;DHT22;60111;48.286;7.812;2023-11-21T08:22:57;8.60;88.80
72206;DHT22;60111;48.286;7.812;2023-11-21T08:25:29;8.70;88.60
72206;DHT22;60111;48.286;7.812;2023-11-21T08:28:01;8.70;87.80
72206;DHT22;60111;48.286;7.812;2023-11-21T08:30:33;8.70;87.30
72206;DHT22;60111;48.286;7.812;2023-11-21T08:33:05;8.70;87.00
72206;DHT22;60111;48.286;7.812;2023-11-21T08:35:37;8.80;86.80
72206;DHT22;60111;48.286;7.812;2023-11-21T08:38:09;8.80;86.80
72206;DHT22;60111;48.286;7.812;2023-11-21T08:40:41;8.80;87.00
72206;DHT22;60111;48.286;7.812;2023-11-21T08:43:13;8.80;86.50
72206;DHT22;60111;48.286;7.812;2023-11-21T08:45:47;8.70;86.90
72206;DHT22;60111;48.286;7.812;2023-11-21T08:48:18;8.80;87.00
72206;DHT22;60111;48.286;7.812;2023-11-21T08:50:50;8.80;86.70
72206;DHT22;60111;48.286;7.812;2023-11-21T08:53:22;8.90;86.30
72206;DHT22;60111;48.286;7.812;2023-11-21T08:55:54;8.80;86.70
72206;DHT22;60111;48.286;7.812;2023-11-21T08:58:26;8.80;87.00
72206;DHT22;60111;48.286;7.812;2023-11-21T09:00:58;8.80;87.20
72206;DHT22;60111;48.286;7.812;2023-11-21T09:03:29;8.80;86.60
72206;DHT22;60111;48.286;7.812;2023-11-21T09:06:03;8.70;86.90
72206;DHT22;60111;48.286;7.812;2023-11-21T09:08:35;8.70;87.70
72206;DHT22;60111;48.286;7.812;2023-11-21T09:11:08;8.70;87.40
72206;DHT22;60111;48.286;7.812;2023-11-21T09:13:39;8.60;87.50
72206;DHT22;60111;48.286;7.812;2023-11-21T09:16:11;8.60;87.80
72206;DHT22;60111;48.286;7.812;2023-11-21T09:18:44;8.60;88.50
72206;DHT22;60111;48.286;7.812;2023-11-21T09:21:16;8.50;88.70
72206;DHT22;60111;48.286;7.812;2023-11-21T09:23:48;8.60;89.20
72206;DHT22;60111;48.286;7.812;2023-11-21T09:26:20;8.70;88.10
72206;DHT22;60111;48.286;7.812;2023-11-21T09:28:52;8.60;88.40
72206;DHT22;60111;48.286;7.812;2023-11-21T09:31:24;8.70;88.60
72206;DHT22;60111;48.286;7.812;2023-11-21T09:33:58;8.70;88.90
72206;DHT22;60111;48.286;7.812;2023-11-21T09:36:29;8.70;89.30
72206;DHT22;60111;48.286;7.812;2023-11-21T09:39:02;8.70;89.20
72206;DHT22;60111;48.286;7.812;2023-11-21T09:42:38;8.60;89.40
72206;DHT22;60111;48.286;7.812;2023-11-21T09:44:20;8.80;89.20
72206;DHT22;60111;48.286;7.812;2023-11-21T09:46:54;8.80;89.10
72206;DHT22;60111;48.286;7.812;2023-11-21T09:49:27;8.80;89.30
72206;DHT22;60111;48.286;7.812;2023-11-21T09:52:00;8.80;89.50
72206;DHT22;60111;48.286;7.812;2023-11-21T09:54:34;8.70;89.60
72206;DHT22;60111;48.286;7.812;2023-11-21T09:57:06;8.70;90.20
72206;DHT22;60111;48.286;7.812;2023-11-21T09:59:40;8.80;90.20
72206;DHT22;60111;48.286;7.812;2023-11-21T10:02:12;8.70;89.40
72206;DHT22;60111;48.286;7.812;2023-11-21T10:04:45;8.70;89.80
72206;DHT22;60111;48.286;7.812;2023-11-21T10:07:18;8.70;89.40
72206;DHT22;60111;48.286;7.812;2023-11-21T10:09:51;8.70;89.70
72206;DHT22;60111;48.286;7.812;2023-11-21T10:12:23;8.70;89.80
72206;DHT22;60111;48.286;7.812;2023-11-21T10:14:56;8.70;89.90
72206;DHT22;60111;48.286;7.812;2023-11-21T10:17:30;8.70;90.00
72206;DHT22;60111;48.286;7.812;2023-11-21T10:20:05;8.70;90.40
72206;DHT22;60111;48.286;7.812;2023-11-21T10:22:40;8.70;90.20
72206;DHT22;60111;48.286;7.812;2023-11-21T10:25:15;8.70;90.60
72206;DHT22;60111;48.286;7.812;2023-11-21T10:27:49;8.70;91.10
72206;DHT22;60111;48.286;7.812;2023-11-21T10:30:27;8.60;91.20
72206;DHT22;60111;48.286;7.812;2023-11-21T10:33:00;8.70;90.60
72206;DHT22;60111;48.286;7.812;2023-11-21T10:38:24;8.80;90.60
72206;DHT22;60111;48.286;7.812;2023-11-21T10:40:57;8.70;90.50
72206;DHT22;60111;48.286;7.812;2023-11-21T10:43:30;8.80;90.70
72206;DHT22;60111;48.286;7.812;2023-11-21T10:46:02;8.80;90.80
72206;DHT22;60111;48.286;7.812;2023-11-21T10:48:34;8.80;90.20
72206;DHT22;60111;48.286;7.812;2023-11-21T10:51:10;8.90;90.30
72206;DHT22;60111;48.286;7.812;2023-11-21T10:53:40;8.90;90.50
72206;DHT22;60111;48.286;7.812;2023-11-21T10:56:14;8.90;90.60
72206;DHT22;60111;48.286;7.812;2023-11-21T10:58:50;8.90;90.80
72206;DHT22;60111;48.286;7.812;2023-11-21T11:01:25;8.90;90.60
72206;DHT22;60111;48.286;7.812;2023-11-21T11:04:00;8.90;90.70
72206;DHT22;60111;48.286;7.812;2023-11-21T11:06:33;8.90;91.20
72206;DHT22;60111;48.286;7.812;2023-11-21T11:09:06;9.00;91.00
72206;DHT22;60111;48.286;7.812;2023-11-21T11:11:40;9.00;90.80
72206;DHT22;60111;48.286;7.812;2023-11-21T11:14:12;9.00;90.70
72206;DHT22;60111;48.286;7.812;2023-11-21T11:16:44;9.00;91.00
72206;DHT22;60111;48.286;7.812;2023-11-21T11:19:16;9.00;91.30
72206;DHT22;60111;48.286;7.812;2023-11-21T11:21:55;9.00;91.30
72206;DHT22;60111;48.286;7.812;2023-11-21T11:24:44;9.00;91.40
72206;DHT22;60111;48.286;7.812;2023-11-21T11:27:23;9.00;91.30
72206;DHT22;60111;48.286;7.812;2023-11-21T11:29:57;9.10;91.30
72206;DHT22;60111;48.286;7.812;2023-11-21T11:35:34;9.20;91.40
72206;DHT22;60111;48.286;7.812;2023-11-21T11:38:03;9.20;91.50
72206;DHT22;60111;48.286;7.812;2023-11-21T11:40:44;9.30;91.60
72206;DHT22;60111;48.286;7.812;2023-11-21T11:43:22;9.30;91.50
72206;DHT22;60111;48.286;7.812;2023-11-21T11:45:48;9.30;91.30
72206;DHT22;60111;48.286;7.812;2023-11-21T11:48:22;9.30;90.80
72206;DHT22;60111;48.286;7.812;2023-11-21T11:51:09;9.30;90.80
72206;DHT22;60111;48.286;7.812;2023-11-21T11:53:40;9.30;90.90
72206;DHT22;60111;48.286;7.812;2023-11-21T11:56:19;9.30;91.00
72206;DHT22;60111;48.286;7.812;2023-11-21T11:58:51;9.30;91.20
72206;DHT22;60111;48.286;7.812;2023-11-21T12:01:25;9.40;91.00
72206;DHT22;60111;48.286;7.812;2023-11-21T12:04:43;9.40;90.40
72206;DHT22;60111;48.286;7.812;2023-11-21T12:06:33;9.50;90.30
72206;DHT22;60111;48.286;7.812;2023-11-21T12:09:04;9.50;90.00
72206;DHT22;60111;48.286;7.812;2023-11-21T12:11:36;9.40;90.30
72206;DHT22;60111;48.286;7.812;2023-11-21T12:14:08;9.50;90.20
72206;DHT22;60111;48.286;7.812;2023-11-21T12:16:41;9.40;90.30
72206;DHT22;60111;48.286;7.812;2023-11-21T12:19:14;9.40;90.20
72206;DHT22;60111;48.286;7.812;2023-11-21T12:21:46;9.40;90.50
72206;DHT22;60111;48.286;7.812;2023-11-21T12:24:19;9.40;90.70
72206;DHT22;60111;48.286;7.812;2023-11-21T12:26:51;9.40;90.80
72206;DHT22;60111;48.286;7.812;2023-11-21T12:29:24;9.40;91.10
72206;DHT22;60111;48.286;7.812;2023-11-21T12:31:55;9.40;91.40
72206;DHT22;60111;48.286;7.812;2023-11-21T12:34:27;9.40;91.70
72206;DHT22;60111;48.286;7.812;2023-11-21T12:37:00;9.50;91.50
72206;DHT22;60111;48.286;7.812;2023-11-21T12:39:32;9.60;91.10
72206;DHT22;60111;48.286;7.812;2023-11-21T12:42:04;9.60;90.50
72206;DHT22;60111;48.286;7.812;2023-11-21T12:44:37;9.70;90.00
72206;DHT22;60111;48.286;7.812;2023-11-21T12:47:15;9.80;89.80
72206;DHT22;60111;48.286;7.812;2023-11-21T12:49:45;9.90;89.60
72206;DHT22;60111;48.286;7.812;2023-11-21T12:52:17;10.00;89.60
72206;DHT22;60111;48.286;7.812;2023-11-21T12:54:49;10.00;88.90
72206;DHT22;60111;48.286;7.812;2023-11-21T12:57:25;10.00;88.70
72206;DHT22;60111;48.286;7.812;2023-11-21T12:59:57;10.00;88.40
72206;DHT22;60111;48.286;7.812;2023-11-21T13:02:31;10.00;87.00
72206;DHT22;60111;48.286;7.812;2023-11-21T13:05:04;9.90;86.90
72206;DHT22;60111;48.286;7.812;2023-11-21T13:07:41;9.90;86.70
72206;DHT22;60111;48.286;7.812;2023-11-21T13:10:16;9.90;85.30
72206;DHT22;60111;48.286;7.812;2023-11-21T13:12:48;9.90;85.80
72206;DHT22;60111;48.286;7.812;2023-11-21T13:15:21;9.80;86.10
72206;DHT22;60111;48.286;7.812;2023-11-21T13:17:53;9.70;86.60
72206;DHT22;60111;48.286;7.812;2023-11-21T13:20:27;9.70;87.10
72206;DHT22;60111;48.286;7.812;2023-11-21T13:23:06;9.60;87.70
72206;DHT22;60111;48.286;7.812;2023-11-21T13:25:34;9.70;87.60
72206;DHT22;60111;48.286;7.812;2023-11-21T13:28:08;9.60;87.90
72206;DHT22;60111;48.286;7.812;2023-11-21T13:30:41;9.60;88.00
72206;DHT22;60111;48.286;7.812;2023-11-21T13:33:15;9.50;88.30
72206;DHT22;60111;48.286;7.812;2023-11-21T13:35:51;9.50;88.60
72206;DHT22;60111;48.286;7.812;2023-11-21T13:38:23;9.50;88.40
72206;DHT22;60111;48.286;7.812;2023-11-21T13:40:55;9.50;88.80
72206;DHT22;60111;48.286;7.812;2023-11-21T13:43:29;9.50;89.00
72206;DHT22;60111;48.286;7.812;2023-11-21T13:46:02;9.50;89.10
72206;DHT22;60111;48.286;7.812;2023-11-21T13:48:35;9.40;89.30
72206;DHT22;60111;48.286;7.812;2023-11-21T13:51:15;9.40;89.40
72206;DHT22;60111;48.286;7.812;2023-11-21T13:53:48;9.40;89.20
72206;DHT22;60111;48.286;7.812;2023-11-21T13:56:24;9.40;89.40
72206;DHT22;60111;48.286;7.812;2023-11-21T13:58:57;9.50;88.80
72206;DHT22;60111;48.286;7.812;2023-11-21T14:01:31;9.40;89.00
72206;DHT22;60111;48.286;7.812;2023-11-21T14:04:04;9.40;89.20
72206;DHT22;60111;48.286;7.812;2023-11-21T14:06:42;9.40;89.30
72206;DHT22;60111;48.286;7.812;2023-11-21T14:09:19;9.40;89.20
72206;DHT22;60111;48.286;7.812;2023-11-21T14:11:55;9.40;89.30
72206;DHT22;60111;48.286;7.812;2023-11-21T14:14:28;9.40;89.40
72206;DHT22;60111;48.286;7.812;2023-11-21T14:17:00;9.40;89.90
72206;DHT22;60111;48.286;7.812;2023-11-21T14:19:34;9.30;90.10
72206;DHT22;60111;48.286;7.812;2023-11-21T14:22:07;9.30;90.20
72206;DHT22;60111;48.286;7.812;2023-11-21T14:24:40;9.40;90.00
72206;DHT22;60111;48.286;7.812;2023-11-21T14:27:17;9.40;90.10
72206;DHT22;60111;48.286;7.812;2023-11-21T14:29:48;9.40;90.40
72206;DHT22;60111;48.286;7.812;2023-11-21T14:32:21;9.40;90.40
72206;DHT22;60111;48.286;7.812;2023-11-21T14:34:53;9.40;90.20
72206;DHT22;60111;48.286;7.812;2023-11-21T14:37:25;9.40;89.70
72206;DHT22;60111;48.286;7.812;2023-11-21T14:39:56;9.40;89.20
72206;DHT22;60111;48.286;7.812;2023-11-21T14:42:29;9.40;88.90
72206;DHT22;60111;48.286;7.812;2023-11-21T14:45:01;9.30;88.50
72206;DHT22;60111;48.286;7.812;2023-11-21T14:47:34;9.30;88.40
72206;DHT22;60111;48.286;7.812;2023-11-21T14:50:08;9.30;88.90
72206;DHT22;60111;48.286;7.812;2023-11-21T14:52:41;9.10;89.30
72206;DHT22;60111;48.286;7.812;2023-11-21T14:55:15;9.10;89.50
72206;DHT22;60111;48.286;7.812;2023-11-21T14:58:05;9.10;89.50
72206;DHT22;60111;48.286;7.812;2023-11-21T15:00:36;9.10;89.80
72206;DHT22;60111;48.286;7.812;2023-11-21T15:03:10;9.00;90.00
72206;DHT22;60111;48.286;7.812;2023-11-21T15:05:44;9.00;90.30
72206;DHT22;60111;48.286;7.812;2023-11-21T15:08:16;8.90;90.50
72206;DHT22;60111;48.286;7.812;2023-11-21T15:10:55;9.00;90.80
72206;DHT22;60111;48.286;7.812;2023-11-21T15:13:27;8.90;91.00
72206;DHT22;60111;48.286;7.812;2023-11-21T15:16:01;9.00;90.90
72206;DHT22;60111;48.286;7.812;2023-11-21T15:18:34;9.10;90.40
72206;DHT22;60111;48.286;7.812;2023-11-21T15:21:06;9.00;90.50
72206;DHT22;60111;48.286;7.812;2023-11-21T15:23:40;8.90;90.70
72206;DHT22;60111;48.286;7.812;2023-11-21T15:26:12;9.00;91.00
72206;DHT22;60111;48.286;7.812;2023-11-21T15:28:44;9.00;90.00
72206;DHT22;60111;48.286;7.812;2023-11-21T15:31:16;8.90;90.20
72206;DHT22;60111;48.286;7.812;2023-11-21T15:33:49;8.90;90.10
72206;DHT22;60111;48.286;7.812;2023-11-21T15:36:22;8.90;90.30
72206;DHT22;60111;48.286;7.812;2023-11-21T15:38:54;8.90;90.40
72206;DHT22;60111;48.286;7.812;2023-11-21T15:41:26;8.90;90.60
72206;DHT22;60111;48.286;7.812;2023-11-21T15:43:58;8.80;90.80
72206;DHT22;60111;48.286;7.812;2023-11-21T15:46:29;8.80;91.00
72206;DHT22;60111;48.286;7.812;2023-11-21T15:49:02;8.70;91.30
72206;DHT22;60111;48.286;7.812;2023-11-21T15:51:35;8.70;91.40
72206;DHT22;60111;48.286;7.812;2023-11-21T15:54:07;8.70;91.60
72206;DHT22;60111;48.286;7.812;2023-11-21T15:56:39;8.80;91.70
72206;DHT22;60111;48.286;7.812;2023-11-21T15:59:11;8.80;91.90
72206;DHT22;60111;48.286;7.812;2023-11-21T16:01:43;8.80;91.70
72206;DHT22;60111;48.286;7.812;2023-11-21T16:04:16;8.80;91.60
72206;DHT22;60111;48.286;7.812;2023-11-21T16:06:48;8.80;91.50
72206;DHT22;60111;48.286;7.812;2023-11-21T16:09:21;8.70;91.80
72206;DHT22;60111;48.286;7.812;2023-11-21T16:11:57;8.70;91.90
72206;DHT22;60111;48.286;7.812;2023-11-21T16:14:36;8.70;92.10
72206;DHT22;60111;48.286;7.812;2023-11-21T16:17:15;8.70;92.10
72206;DHT22;60111;48.286;7.812;2023-11-21T16:19:52;8.80;91.90
72206;DHT22;60111;48.286;7.812;2023-11-21T16:22:25;8.70;92.00
72206;DHT22;60111;48.286;7.812;2023-11-21T16:24:59;8.80;92.10